createdAt,value
2018-01-16T04:32:35.959Z,6.80
2018-01-16T04:35:09.703Z,6.90
2018-01-16T04:37:44.167Z,7.00
2018-01-16T04:40:17.961Z,7.00
2018-01-16T04:42:52.616Z,7.00
2018-01-16T04:45:26.215Z,7.00
2018-01-16T04:48:00.067Z,7.10
2018-01-16T04:50:33.800Z,7.10
2018-01-16T04:53:07.668Z,7.10
2018-01-16T04:55:41.285Z,7.10
2018-01-16T05:01:12.788Z,7.20
2018-01-16T05:03:46.720Z,7.10
2018-01-16T05:06:20.312Z,7.10
2018-01-16T05:08:54.058Z,7.10
2018-01-16T05:11:27.721Z,7.10
2018-01-16T05:14:01.456Z,7.10
2018-01-16T05:16:35.176Z,7.10
2018-01-16T05:19:08.904Z,7.10
2018-01-16T05:21:42.677Z,7.10
2018-01-16T05:24:18.419Z,7.10
2018-01-16T05:26:52.933Z,7.10
2018-01-16T05:29:27.303Z,7.10
2018-01-16T05:32:00.965Z,7.10
2018-01-16T05:34:35.323Z,7.10
2018-01-16T05:37:09.122Z,7.10
2018-01-16T05:39:42.863Z,7.10
2018-01-16T05:42:16.631Z,7.10
2018-01-16T05:44:50.221Z,7.10
2018-01-16T05:47:24.009Z,7.10
2018-01-16T05:49:58.383Z,7.20
2018-01-16T05:52:32.297Z,7.20
2018-01-16T05:55:06.915Z,7.10
2018-01-16T05:57:41.075Z,7.10
2018-01-16T06:00:14.726Z,7.10
2018-01-16T06:02:48.540Z,7.10
2018-01-16T06:05:23.060Z,7.10
2018-01-16T06:07:56.895Z,7.00
2018-01-16T06:10:30.536Z,7.10
2018-01-16T06:13:04.751Z,7.00
2018-01-16T06:15:40.152Z,7.10
2018-01-16T06:18:14.019Z,7.00
2018-01-16T06:20:49.655Z,7.10
2018-01-16T06:23:24.224Z,7.10
2018-01-16T06:25:58.046Z,7.10
2018-01-16T06:28:32.111Z,7.10
2018-01-16T06:31:08.204Z,7.10
2018-01-16T06:33:41.933Z,7.20
2018-01-16T06:36:15.676Z,7.10
2018-01-16T06:38:51.255Z,7.20
2018-01-16T06:41:25.049Z,7.20
2018-01-16T06:43:58.869Z,7.20
2018-01-16T06:46:32.732Z,7.30
2018-01-16T06:49:06.622Z,7.30
2018-01-16T06:51:40.321Z,7.40
2018-01-16T06:54:14.152Z,7.40
2018-01-16T06:56:47.952Z,7.50
2018-01-16T06:59:21.826Z,7.40
2018-01-16T07:01:55.493Z,7.40
2018-01-16T07:04:29.310Z,7.40
2018-01-16T07:07:03.048Z,7.40
2018-01-16T07:09:37.072Z,7.40
2018-01-16T07:12:11.638Z,7.30
2018-01-16T07:14:46.254Z,7.30
2018-01-16T07:17:20.044Z,7.30
2018-01-16T07:19:54.683Z,7.40
2018-01-16T07:22:28.409Z,7.40
2018-01-16T07:25:02.234Z,7.40
2018-01-16T07:27:36.596Z,7.40
2018-01-16T07:30:10.311Z,7.40
2018-01-16T07:32:44.484Z,7.30
2018-01-16T07:35:18.354Z,7.30
2018-01-16T07:37:52.279Z,7.40
2018-01-16T07:40:26.008Z,7.40
2018-01-16T07:43:00.184Z,7.50
2018-01-16T07:45:34.000Z,7.60
2018-01-16T07:48:07.795Z,7.60
2018-01-16T07:50:41.530Z,7.70
2018-01-16T07:53:15.309Z,7.70
2018-01-16T07:55:49.962Z,7.80
2018-01-16T07:58:23.659Z,7.70
2018-01-16T08:00:58.260Z,7.70
2018-01-16T08:03:31.919Z,7.70
2018-01-16T08:06:05.710Z,7.70
2018-01-16T08:08:39.524Z,7.70
2018-01-16T08:11:13.279Z,7.70
2018-01-16T08:13:47.112Z,7.60
2018-01-16T08:16:20.925Z,7.50
2018-01-16T08:18:54.799Z,7.50
2018-01-16T08:21:29.419Z,7.30
2018-01-16T08:24:03.972Z,7.20
2018-01-16T08:26:37.770Z,7.20
2018-01-16T08:29:11.472Z,7.10
2018-01-16T08:31:45.960Z,7.10
2018-01-16T08:34:20.464Z,7.10
2018-01-16T08:36:55.013Z,7.10
2018-01-16T08:39:28.811Z,7.10
2018-01-16T08:42:02.400Z,7.10
2018-01-16T08:44:36.859Z,7.10
2018-01-16T08:47:12.222Z,7.20
2018-01-16T08:49:46.101Z,7.20
2018-01-16T08:52:20.721Z,7.20
2018-01-16T08:54:54.763Z,7.20
2018-01-16T08:57:28.529Z,7.30
2018-01-16T09:00:03.159Z,7.40
2018-01-16T09:02:36.892Z,7.30
2018-01-16T09:05:10.627Z,7.40
2018-01-16T09:07:44.306Z,7.40
2018-01-16T09:10:18.136Z,7.30
2018-01-16T09:12:51.938Z,7.30
2018-01-16T09:15:25.719Z,7.30
2018-01-16T09:18:00.170Z,7.40
2018-01-16T09:20:34.719Z,7.40
2018-01-16T09:23:08.523Z,7.40
2018-01-16T09:25:42.243Z,7.50
2018-01-16T09:28:16.087Z,7.60
2018-01-16T09:30:50.467Z,7.60
2018-01-16T09:33:24.939Z,7.50
2018-01-16T09:35:59.400Z,7.60
2018-01-16T09:38:33.163Z,7.60
2018-01-16T09:41:06.858Z,7.60
2018-01-16T09:43:40.695Z,7.70
2018-01-16T09:46:14.442Z,7.70
2018-01-16T09:48:52.378Z,7.90
2018-01-16T09:51:26.941Z,8.00
2018-01-16T09:54:01.591Z,8.10
2018-01-16T09:56:35.364Z,8.10
2018-01-16T09:59:09.903Z,8.30
2018-01-16T10:01:43.660Z,8.30
2018-01-16T10:04:17.404Z,8.50
2018-01-16T10:06:51.282Z,8.50
2018-01-16T10:09:24.995Z,8.60
2018-01-16T10:11:58.760Z,8.50
2018-01-16T10:14:32.452Z,8.50
2018-01-16T10:17:06.370Z,8.30
2018-01-16T10:19:40.121Z,8.30
2018-01-16T10:22:13.912Z,8.30
2018-01-16T10:24:47.667Z,8.20
2018-01-16T10:27:21.508Z,8.20
2018-01-16T10:29:55.385Z,8.10
2018-01-16T10:32:29.923Z,8.10
2018-01-16T10:35:03.675Z,8.10
2018-01-16T10:37:37.450Z,8.00
2018-01-16T10:40:11.171Z,8.00
2018-01-16T10:42:44.959Z,7.90
2018-01-16T10:45:18.683Z,7.90
2018-01-16T10:47:52.477Z,7.90
2018-01-16T10:50:26.960Z,7.90
2018-01-16T10:53:00.628Z,7.80
2018-01-16T10:55:34.404Z,7.90
2018-01-16T10:58:08.205Z,7.80
2018-01-16T11:00:42.035Z,7.80
2018-01-16T11:03:16.846Z,7.90
2018-01-16T11:05:50.651Z,7.80
2018-01-16T11:08:24.807Z,8.00
2018-01-16T11:10:59.231Z,8.10
2018-01-16T11:13:33.786Z,8.20
2018-01-16T11:16:07.657Z,8.20
2018-01-16T11:18:41.399Z,8.20
2018-01-16T11:21:15.263Z,8.20
2018-01-16T11:23:49.727Z,8.20
2018-01-16T11:26:23.486Z,8.10
2018-01-16T11:28:57.243Z,8.10
2018-01-16T11:31:31.872Z,8.10
2018-01-16T11:34:05.624Z,8.10
2018-01-16T11:36:39.459Z,7.90
2018-01-16T11:39:18.193Z,7.80
2018-01-16T11:41:53.143Z,7.70
2018-01-16T11:44:27.076Z,7.60
2018-01-16T11:47:01.664Z,7.60
2018-01-16T11:49:35.528Z,7.50
2018-01-16T11:52:09.311Z,7.50
2018-01-16T11:54:43.104Z,7.50
2018-01-16T11:57:16.991Z,7.50
2018-01-16T11:59:50.889Z,7.40
2018-01-16T12:02:24.741Z,7.50
2018-01-16T12:04:59.217Z,7.60
2018-01-16T12:07:33.056Z,7.60
2018-01-16T12:10:07.013Z,7.60
2018-01-16T12:12:40.814Z,7.70
2018-01-16T12:15:15.388Z,7.80
2018-01-16T12:17:49.790Z,7.70
2018-01-16T12:20:24.323Z,7.70
2018-01-16T12:22:58.005Z,7.60
2018-01-16T12:25:31.860Z,7.50
2018-01-16T12:28:05.655Z,7.50
2018-01-16T12:30:39.476Z,7.50
2018-01-16T12:33:13.165Z,7.40
2018-01-16T12:35:47.048Z,7.10
2018-01-16T12:38:21.574Z,6.90
2018-01-16T12:40:56.116Z,6.80
2018-01-16T12:43:29.875Z,6.80
2018-01-16T12:46:04.444Z,6.70
2018-01-16T12:48:38.949Z,6.70
2018-01-16T12:51:12.785Z,6.60
2018-01-16T12:53:46.532Z,6.60
2018-01-16T12:56:20.372Z,6.50
2018-01-16T12:58:54.924Z,6.60
2018-01-16T13:01:28.765Z,6.60
2018-01-16T13:04:03.361Z,6.50
2018-01-16T13:06:37.087Z,6.50
2018-01-16T13:09:11.261Z,6.50
2018-01-16T13:11:45.284Z,6.60
2018-01-16T13:14:19.181Z,6.60
2018-01-16T13:16:53.004Z,6.60
2018-01-16T13:19:27.597Z,6.50
2018-01-16T13:22:01.320Z,6.50
2018-01-16T13:24:36.282Z,6.40
2018-01-16T13:27:09.964Z,6.40
2018-01-16T13:29:43.780Z,6.40
2018-01-16T13:32:17.631Z,6.50
2018-01-16T13:34:51.453Z,6.50
2018-01-16T13:37:26.073Z,6.80
2018-01-16T13:40:00.152Z,6.80
2018-01-16T13:42:34.624Z,6.90
2018-01-16T13:45:08.617Z,6.90
2018-01-16T13:47:42.296Z,7.00
2018-01-16T13:50:16.948Z,7.10
2018-01-16T13:52:50.680Z,7.10
2018-01-16T13:55:24.481Z,7.10
2018-01-16T13:57:58.387Z,7.20
2018-01-16T14:00:33.867Z,7.20
2018-01-16T14:03:07.655Z,7.10
2018-01-16T14:05:41.366Z,7.30
2018-01-16T14:08:15.212Z,7.40
2018-01-16T14:10:48.904Z,7.60
2018-01-16T14:13:22.786Z,7.60
2018-01-16T14:15:56.473Z,7.60
2018-01-16T14:18:30.313Z,7.60
2018-01-16T14:21:04.047Z,7.60
2018-01-16T14:23:37.962Z,7.60
2018-01-16T14:26:11.921Z,7.60
2018-01-16T14:28:46.721Z,7.60
2018-01-16T14:31:21.332Z,7.60
2018-01-16T14:33:56.030Z,7.60
2018-01-16T14:36:29.773Z,7.50
2018-01-16T14:39:03.683Z,7.40
2018-01-16T14:41:37.507Z,7.30
2018-01-16T14:44:12.032Z,7.00
2018-01-16T14:46:46.543Z,7.00
2018-01-16T14:49:20.338Z,6.90
2018-01-16T14:51:55.476Z,6.90
2018-01-16T14:54:29.325Z,6.90
2018-01-16T14:57:03.094Z,6.90
2018-01-16T14:59:36.834Z,6.90
2018-01-16T15:02:10.596Z,6.80
2018-01-16T15:04:45.199Z,6.60
2018-01-16T15:07:20.887Z,6.60
2018-01-16T15:09:54.593Z,6.60
2018-01-16T15:12:29.384Z,6.60
2018-01-16T15:15:03.175Z,6.60
2018-01-16T15:17:37.064Z,6.60
2018-01-16T15:20:11.616Z,6.50
2018-01-16T15:22:45.512Z,6.50
2018-01-16T15:25:19.384Z,6.50
2018-01-16T15:27:53.180Z,6.40
2018-01-16T15:30:27.027Z,6.30
2018-01-16T15:33:01.832Z,6.30
2018-01-16T15:35:35.761Z,6.30
2018-01-16T15:38:10.366Z,6.30
2018-01-16T15:40:44.479Z,6.30
2018-01-16T15:43:18.947Z,6.30
2018-01-16T15:45:55.399Z,6.30
2018-01-16T15:48:29.217Z,6.40
2018-01-16T15:51:06.954Z,6.30
2018-01-16T15:53:40.816Z,6.20
2018-01-16T15:56:14.690Z,6.20
2018-01-16T15:58:48.352Z,6.10
2018-01-16T16:01:22.201Z,6.10
2018-01-16T16:03:56.070Z,6.00
2018-01-16T16:06:29.784Z,5.90
2018-01-16T16:09:03.596Z,6.00
2018-01-16T16:11:37.387Z,6.10
2018-01-16T16:14:11.179Z,6.10
2018-01-16T16:16:44.912Z,6.10
2018-01-16T16:19:18.724Z,6.20
2018-01-16T16:21:53.241Z,6.20
2018-01-16T16:24:26.950Z,6.20
2018-01-16T16:27:01.044Z,6.30
2018-01-16T16:29:35.441Z,6.30
2018-01-16T16:32:09.067Z,6.30
2018-01-16T16:34:43.128Z,6.30
2018-01-16T16:37:17.608Z,6.30
2018-01-16T16:39:52.221Z,6.30
2018-01-16T16:42:26.041Z,6.20
2018-01-16T16:44:59.801Z,6.30
2018-01-16T16:47:33.596Z,6.40
2018-01-16T16:50:07.401Z,6.40
2018-01-16T16:52:41.136Z,6.40
2018-01-16T16:55:15.657Z,6.50
2018-01-16T16:57:50.113Z,6.60
2018-01-16T17:00:24.027Z,6.60
2018-01-16T17:03:00.005Z,6.60
2018-01-16T17:05:34.021Z,6.60
2018-01-16T17:08:07.805Z,6.70
2018-01-16T17:10:41.629Z,6.70
2018-01-16T17:13:15.412Z,6.60
2018-01-16T17:15:49.143Z,6.70
2018-01-16T17:18:22.953Z,6.70
2018-01-16T17:20:57.512Z,6.70
2018-01-16T17:23:31.348Z,6.60
2018-01-16T17:26:05.503Z,6.70
2018-01-16T17:28:40.136Z,6.70
2018-01-16T17:31:14.026Z,6.70
2018-01-16T17:33:48.691Z,6.70
2018-01-16T17:36:23.688Z,6.80
2018-01-16T17:38:57.434Z,6.70
2018-01-16T17:41:32.055Z,6.80
2018-01-16T17:44:05.887Z,6.80
2018-01-16T17:49:08.915Z,6.80
2018-01-16T17:51:42.748Z,6.80
2018-01-16T17:54:16.445Z,6.70
2018-01-16T17:56:51.011Z,6.50
2018-01-16T17:59:25.640Z,6.20
2018-01-16T18:01:59.474Z,6.20
2018-01-16T18:04:33.307Z,6.10
2018-01-16T18:07:07.121Z,6.10
2018-01-16T18:09:41.065Z,6.00
2018-01-16T18:12:15.693Z,5.90
2018-01-16T18:14:50.310Z,5.90
2018-01-16T18:17:24.080Z,5.90
2018-01-16T18:19:57.767Z,5.90
2018-01-16T18:22:31.903Z,5.80
2018-01-16T18:25:08.392Z,5.70
2018-01-16T18:27:42.273Z,5.70
2018-01-16T18:30:16.241Z,5.60
2018-01-16T18:32:52.321Z,5.60
2018-01-16T18:35:26.115Z,5.50
2018-01-16T18:37:59.831Z,5.50
2018-01-16T18:40:33.539Z,5.50
2018-01-16T18:43:07.163Z,5.40
2018-01-16T18:45:40.951Z,5.20
2018-01-16T18:48:14.841Z,5.20
2018-01-16T18:50:48.671Z,5.10
2018-01-16T18:53:22.607Z,5.10
2018-01-16T18:55:56.389Z,5.00
2018-01-16T18:58:30.247Z,4.90
2018-01-16T19:01:06.286Z,5.00
2018-01-16T19:03:40.848Z,4.90
2018-01-16T19:06:15.437Z,4.90
2018-01-16T19:08:49.348Z,4.90
2018-01-16T19:11:23.056Z,4.90
2018-01-16T19:13:56.857Z,4.90
2018-01-16T19:16:31.496Z,4.80
2018-01-16T19:19:05.256Z,4.80
2018-01-16T19:21:39.116Z,4.80
2018-01-16T19:24:13.745Z,4.50
2018-01-16T19:26:47.500Z,4.50
2018-01-16T19:29:22.123Z,4.50
2018-01-16T19:31:56.178Z,4.50
2018-01-16T19:34:30.581Z,4.50
2018-01-16T19:37:05.120Z,4.50
2018-01-16T19:39:38.846Z,4.50
2018-01-16T19:42:13.460Z,4.40
2018-01-16T19:44:47.149Z,4.40
2018-01-16T19:47:21.046Z,4.40
2018-01-16T19:49:54.863Z,4.40
2018-01-16T19:52:28.675Z,4.30
2018-01-16T19:55:02.537Z,4.30
2018-01-16T19:57:36.293Z,4.40
2018-01-16T20:00:10.057Z,4.40
2018-01-16T20:02:43.930Z,4.30
2018-01-16T20:05:18.544Z,4.30
2018-01-16T20:07:52.264Z,4.30
2018-01-16T20:10:26.098Z,4.30
2018-01-16T20:12:59.981Z,4.30
2018-01-16T20:15:34.585Z,4.30
2018-01-16T20:18:09.008Z,4.30
2018-01-16T20:20:42.776Z,4.30
2018-01-16T20:23:17.815Z,4.30
2018-01-16T20:25:51.545Z,4.20
2018-01-16T20:28:25.704Z,4.30
2018-01-16T20:31:00.514Z,4.20
2018-01-16T20:33:34.314Z,4.20
2018-01-16T20:36:08.176Z,4.30
2018-01-16T20:38:42.146Z,4.30
2018-01-16T20:41:16.760Z,4.20
2018-01-16T20:43:50.859Z,4.20
2018-01-16T20:46:25.414Z,4.20
2018-01-16T20:48:59.376Z,4.20
2018-01-16T20:51:33.165Z,4.10
2018-01-16T20:54:07.042Z,4.10
2018-01-16T20:56:40.871Z,4.10
2018-01-16T20:59:14.685Z,4.10
2018-01-16T21:01:48.573Z,4.10
2018-01-16T21:04:23.210Z,4.20
2018-01-16T21:06:56.983Z,4.20
2018-01-16T21:09:30.781Z,4.10
2018-01-16T21:12:04.861Z,4.10
2018-01-16T21:14:38.648Z,4.00
2018-01-16T21:17:13.283Z,4.10
2018-01-16T21:19:47.825Z,4.00
2018-01-16T21:22:21.683Z,4.00
2018-01-16T21:24:55.511Z,4.10
2018-01-16T21:27:29.473Z,4.10
2018-01-16T21:30:03.220Z,4.20
2018-01-16T21:32:37.077Z,4.20
2018-01-16T21:35:11.696Z,4.30
2018-01-16T21:37:45.398Z,4.30
2018-01-16T21:40:19.298Z,4.40
2018-01-16T21:42:54.081Z,4.50
2018-01-16T21:45:27.932Z,4.50
2018-01-16T21:48:01.678Z,4.50
2018-01-16T21:50:36.270Z,4.60
2018-01-16T21:53:10.147Z,4.60
2018-01-16T21:55:43.848Z,4.60
2018-01-16T21:58:17.727Z,4.70
